Aérodrome :
LOGIN :

S'inscrire | Disclaimer

   EN    FR    IT 

 










Légende :    VFR   VFR Marginal   IFR   IFR Intensif   IFR Très Intensif
Visi : 
Plafond : 
>= 8 km
>= 3000ft
5 à 8 km
1000 à 3000 ft
1500m à 5 km
500 à 1000 ft
800 à 1500m
200 à 500 ft
< 800m
< 200 ft
Symboles :   Orages  Brouillard  Fortes neiges  Fortes précipitations  Vent > 20 kt
SIGMETs :   Divers  Orages  Givrage  Turbulence  Onde Orograph.  Cendres Volcan.







- Altitude de l'aérodrome : 125 ft
- Code IATA : MGL


EDLN - Mönchengladbach

DERNIER METAR :
  • 221120Z VRB09KT 9999 SCT034 SCT076 16/09 Q1020

METARs EXPIRÉS :
  • 221050Z 24008KT 9999 FEW035 16/08 Q1020
  • 221020Z VRB08KT CAVOK 16/08 Q1020
  • 220950Z VRB09KT CAVOK 15/08 Q1020
  • 220920Z 23009KT CAVOK 15/08 Q1021
  • 220850Z VRB06KT CAVOK 14/09 Q1021

TAF TAF EDLN
Valide du 22 à 12h jusqu'au 22 à 21h UTC


221100Z 2212/2221 24008KT 9999 SCT030
TEMPO 2212/2215 26013KT
BECMG 2218/2221 21003KT
Pas de NOTAMs connus pour ce terrain.



MET'MAP, la Météo Aéronautique d'un coup d'oeil ! - Copyright ORBIFLY Décembre 2007 - Disclaimer

ORBIFLY MET'MAP TEAM :

Programmation & Développement : Alexandra Zaïnal
Conception & Développement : Baudouin d'Aumeries
Co-Programmation & Développement : Marc-Olivier Méhu
Soutien technique & logistique : Manuel Goepfert

Contact : metmap@orbifly.com




SOURCES & CREDITS :

   NOAA